KFYM

Fayetteville Municipal Airport

Fayetteville, Tennessee, USA
METAR KFYM 190855Z AUTO 00000KT 1/4SM FG VV002 20/20 A2998 RMK A01
Observed Flight Rules
Sep-19 @ 08:55 UTC (17 minutes ago) Instrument Flight Rules
Visibility Clouds Conditions
1/4 miles
  • Vertical visibility at 200' AGL
  • Fog
Temperatures Readings
Current 20°C / 68°F
Dewpoint 20°C / 68°F
Humidity 100%
Altimeter 29.98" Hg
Pressure 1015 hPa
Elevation 300
METAR KFYM 190855Z AUTO 00000KT 1/4SM FG VV002 20/20 A2998 RMK A01
Observed Flight Rules
Sep-19 @ 08:55 UTC
(17 minutes ago)
LIFR
Clouds
  • Vertical visibility at 200' AGL
Conditions
  • Fog
Temperature Dewpoint
20°C / 68°F 20°C / 68°F
Humidity Altimeter Pressure
100% 29.98" Hg 1015 hPa